Startpagina
METAR-TAF:

METAR-TAF

Vliegvelden :

Cuenca, Ecuador

breedte: 02-53-22S, lengte: 078-59-04W, hoogte: 2532 m

Actueel weer

Dit bericht is 1 uur en het 3 minuten geleden gemaakt, om 07:00 UTC
Wind 2 kt uit variabele richting
Temperatuur 10°C
Vochtigheid 87%
Druk 1026 hPa

METAR: SECU 210700Z AUTO VRB02KT ////NDV NCD 10/08 Q1026

Tijdstip: 03:03 (08:03 UTC)


TAF: ontbreekt

Waarnemingen en weersverwachtingen van meer dan 4000 vliegvelden (METAR en TAF).

De beschikbare stations zijn de gele en rode punten op de kaart.

Ga met uw muis naar het station om de naam te zien.

Klik dan om waarnemingen en weersverwachtingen te zien.

kaart wijzigen: klik op de groene knoppen met een zwart kruis om in te zoomen, op de groene knop met een streepje om uit te zoomen of op de groene pijlen voor aangrenzende kaarten.


METAR-TAF: